RKNN/KAG METAR and TAF weather

Enter ICAO airport designator
Station Type Date Time Source
RKNN METAR 2023/02/03 10:48 UTC NOAA

RKNN 031048Z 22004KT 9999 SCT030 M01/M05 A3019


Station Type Date Time Source
RKNN Decoded METAR 2023/02/03 10:48 UTC NOAA

Kangnung Ab, Korea, South (RKNN) 37-45N 128-57E 6M
Feb 03, 2023 - 05:48 AM EST / 2023.02.03 1048 UTC
Wind: from the SW (220 degrees) at 5 MPH (4 KT):0
Visibility: greater than 7 mile(s):0
Sky conditions: partly cloudy
Temperature: 30 F (-1 C)
Windchill: 24 F (-4 C):1
Dew Point: 23 F (-5 C)
Relative Humidity: 74%
Pressure (altimeter): 30.19 in. Hg (1022 hPa)
ob: RKNN 031048Z 22004KT 9999 SCT030 M01/M05 A3019
cycle: 11

Station Type Date Time Source
RKNN TAF 2013/10/14 20:56 UTC NOAA

TAF
AMD RKNN 142045Z 1420/1524 06006G16KT 4800 -RA BR SCT010 BKN020
BECMG 1423/1424 06006G16KT 3200 -RA BR BKN010 OVC020
BECMG 1511/1512 36010KT 4800 -RA BR BKN025 TX16/1421Z TN07/1520Z

Example: see airport list